Time;durP1;ratioP1;P1;durP2;ratioP2;P2;SDS_P1;SDS_P2;PMS_P1;PMS_P2;Temp;Humidity;BMP_temperature;BMP_pressure;BME280_temperature;BME280_humidity;BME280_pressure;Samples;Min_cycle;Max_cycle;Signal;HPM_P1;HPM_P2
2022/07/01 00:01:03;;;;;;;8.03;7.20;;;;;;;;;;4981135;28;20227;-73
2022/07/01 00:03:29;;;;;;;10.73;7.37;;;;;;;;;;4963378;28;20237;-72
2022/07/01 00:05:56;;;;;;;9.23;7.60;;;;;;;;;;4980511;28;20270;-73
2022/07/01 00:08:22;;;;;;;11.87;7.83;;;;;;;;;;4988844;28;20228;-72
2022/07/01 00:10:49;;;;;;;9.40;7.87;;;;;;;;;;4979970;28;20240;-72
2022/07/01 00:13:15;;;;;;;11.70;7.50;;;;;;;;;;4976490;28;220774;-72
2022/07/01 00:15:42;;;;;;;8.03;7.23;;;;;;;;;;4980361;28;20255;-73
2022/07/01 00:18:09;;;;;;;7.27;6.57;;;;;;;;;;5007950;28;20338;-72
2022/07/01 00:20:35;;;;;;;9.07;8.03;;;;;;;;;;5005332;28;20235;-73
2022/07/01 00:23:02;;;;;;;8.17;7.13;;;;;;;;;;5008010;28;20281;-72
2022/07/01 00:25:28;;;;;;;9.23;7.20;;;;;;;;;;5005715;28;20227;-72
2022/07/01 00:27:55;;;;;;;7.87;7.07;;;;;;;;;;5007711;28;20318;-72
2022/07/01 00:30:22;;;;;;;8.43;7.63;;;;;;;;;;4972988;28;20230;-73
2022/07/01 00:32:48;;;;;;;8.07;7.17;;;;;;;;;;4991450;28;20231;-72
2022/07/01 00:35:15;;;;;;;7.33;6.63;;;;;;;;;;5001024;28;20266;-72
2022/07/01 00:37:42;;;;;;;8.97;6.60;;;;;;;;;;4981808;28;232717;-72
2022/07/01 00:40:08;;;;;;;10.27;7.43;;;;;;;;;;5006875;28;20250;-72
2022/07/01 00:42:38;;;;;;;10.40;7.33;;;;;;;;;;5003645;28;20219;-72
2022/07/01 00:45:05;;;;;;;10.70;8.37;;;;;;;;;;5004874;28;20238;-73
2022/07/01 00:47:50;;;;;;;11.93;8.00;;;;;;;;;;4985139;28;20219;-72
2022/07/01 00:50:16;;;;;;;10.23;8.10;;;;;;;;;;5003011;28;20227;-72
2022/07/01 00:53:00;;;;;;;9.13;8.23;;;;;;;;;;5005969;28;20215;-72
2022/07/01 00:55:27;;;;;;;10.67;8.33;;;;;;;;;;4981919;28;215155;-72
2022/07/01 00:57:54;;;;;;;10.63;8.73;;;;;;;;;;5004506;28;20222;-73
2022/07/01 01:00:24;;;;;;;10.77;8.73;;;;;;;;;;4988288;28;20227;-72
2022/07/01 01:02:50;;;;;;;11.00;8.90;;;;;;;;;;4989496;28;20226;-73
2022/07/01 01:05:24;;;;;;;10.83;8.80;;;;;;;;;;5006440;28;20233;-72
2022/07/01 01:07:51;;;;;;;9.77;8.77;;;;;;;;;;4997198;28;225846;-72
2022/07/01 01:10:18;;;;;;;12.33;9.67;;;;;;;;;;5006270;28;20227;-72
2022/07/01 01:12:45;;;;;;;11.20;9.40;;;;;;;;;;4997032;28;228838;-72
2022/07/01 01:15:17;;;;;;;12.53;9.27;;;;;;;;;;5006176;28;20242;-72
2022/07/01 01:17:43;;;;;;;11.63;9.07;;;;;;;;;;5004133;28;20230;-72
2022/07/01 01:20:16;;;;;;;10.27;8.70;;;;;;;;;;5001343;28;20223;-72
2022/07/01 01:22:43;;;;;;;10.67;8.93;;;;;;;;;;4987017;28;20223;-73
2022/07/01 01:25:10;;;;;;;10.10;9.07;;;;;;;;;;5002030;28;22085;-72
2022/07/01 01:27:37;;;;;;;10.63;9.53;;;;;;;;;;5002678;28;20232;-72
2022/07/01 01:30:05;;;;;;;10.77;9.47;;;;;;;;;;4992619;28;20220;-72
2022/07/01 01:32:31;;;;;;;11.10;9.87;;;;;;;;;;5003419;28;20230;-72
2022/07/01 01:34:58;;;;;;;10.90;9.70;;;;;;;;;;5005558;28;20615;-72
2022/07/01 01:37:24;;;;;;;12.83;10.27;;;;;;;;;;5002306;28;20254;-73
2022/07/01 01:39:51;;;;;;;10.60;9.50;;;;;;;;;;5005795;28;20230;-72
2022/07/01 01:42:17;;;;;;;11.63;9.80;;;;;;;;;;5003706;28;20721;-73
2022/07/01 01:44:44;;;;;;;13.23;9.70;;;;;;;;;;5001772;28;20239;-72
2022/07/01 01:47:11;;;;;;;12.67;10.27;;;;;;;;;;5002219;28;21071;-72
2022/07/01 01:49:37;;;;;;;12.13;10.83;;;;;;;;;;5005549;28;20231;-72
2022/07/01 01:52:04;;;;;;;12.07;10.60;;;;;;;;;;5003930;28;20227;-73
2022/07/01 01:54:31;;;;;;;14.00;11.53;;;;;;;;;;5003827;28;20234;-72
2022/07/01 01:56:57;;;;;;;13.37;11.87;;;;;;;;;;5003382;28;20231;-72
2022/07/01 01:59:24;;;;;;;14.77;11.30;;;;;;;;;;5004508;28;20231;-72
2022/07/01 02:01:50;;;;;;;13.70;12.20;;;;;;;;;;5002348;28;20239;-73
2022/07/01 02:04:17;;;;;;;14.43;11.70;;;;;;;;;;5002967;28;20238;-72
2022/07/01 02:06:44;;;;;;;14.43;11.90;;;;;;;;;;5000503;28;20251;-73
2022/07/01 02:09:10;;;;;;;15.77;10.97;;;;;;;;;;5005847;28;20595;-72
2022/07/01 02:11:37;;;;;;;16.73;10.23;;;;;;;;;;4985944;28;20325;-72
2022/07/01 02:14:04;;;;;;;12.73;10.30;;;;;;;;;;5005038;28;20604;-72
2022/07/01 02:16:31;;;;;;;11.80;10.10;;;;;;;;;;5002935;28;20236;-72
2022/07/01 02:18:58;;;;;;;11.90;9.90;;;;;;;;;;5003778;28;23504;-72
2022/07/01 02:21:25;;;;;;;12.43;9.93;;;;;;;;;;5003364;28;20617;-73
2022/07/01 02:23:54;;;;;;;12.27;9.80;;;;;;;;;;5004597;28;20238;-72
2022/07/01 02:26:21;;;;;;;12.17;9.70;;;;;;;;;;4993232;28;218557;-72
2022/07/01 02:28:48;;;;;;;13.00;10.03;;;;;;;;;;4986610;28;20227;-72
2022/07/01 02:31:14;;;;;;;10.13;9.10;;;;;;;;;;5002327;28;20219;-72
2022/07/01 02:33:41;;;;;;;11.17;9.60;;;;;;;;;;4986527;28;20690;-72
2022/07/01 02:36:08;;;;;;;10.57;9.43;;;;;;;;;;4987698;28;20239;-73
2022/07/01 02:38:34;;;;;;;12.30;9.27;;;;;;;;;;5003915;28;20239;-72
2022/07/01 02:41:01;;;;;;;11.00;9.90;;;;;;;;;;5002413;28;20227;-73
2022/07/01 02:43:27;;;;;;;13.57;10.20;;;;;;;;;;5004411;28;20572;-72
2022/07/01 02:45:55;;;;;;;10.43;9.33;;;;;;;;;;5001386;28;20651;-73
2022/07/01 02:48:22;;;;;;;17.07;9.70;;;;;;;;;;5004590;28;20242;-72
2022/07/01 02:50:48;;;;;;;14.03;9.87;;;;;;;;;;4985103;28;20231;-72
2022/07/01 02:53:15;;;;;;;14.23;9.93;;;;;;;;;;4978610;28;20230;-72
2022/07/01 02:55:59;;;;;;;10.87;9.43;;;;;;;;;;5002976;28;20285;-72
2022/07/01 02:58:26;;;;;;;15.07;10.17;;;;;;;;;;5001906;28;20223;-73
2022/07/01 03:00:53;;;;;;;12.57;9.90;;;;;;;;;;5003464;28;20590;-72
2022/07/01 03:03:20;;;;;;;20.77;10.50;;;;;;;;;;4977870;28;249641;-72
2022/07/01 03:05:47;;;;;;;17.43;10.37;;;;;;;;;;4986840;28;20237;-72
2022/07/01 03:08:14;;;;;;;20.07;10.27;;;;;;;;;;5001867;28;20329;-72
2022/07/01 03:10:41;;;;;;;16.13;10.03;;;;;;;;;;5004017;28;20222;-72
2022/07/01 03:13:07;;;;;;;18.17;10.90;;;;;;;;;;5001832;28;20333;-72
2022/07/01 03:15:34;;;;;;;15.53;10.33;;;;;;;;;;5003390;28;20231;-72
2022/07/01 03:18:00;;;;;;;17.23;9.97;;;;;;;;;;4988124;28;20231;-72
2022/07/01 03:20:27;;;;;;;16.33;10.23;;;;;;;;;;4936611;28;20275;-74
2022/07/01 03:22:54;;;;;;;15.17;10.30;;;;;;;;;;4950858;28;237881;-73
2022/07/01 03:25:20;;;;;;;18.73;10.63;;;;;;;;;;4977752;28;20243;-73
2022/07/01 03:27:47;;;;;;;18.00;9.47;;;;;;;;;;4979329;28;20663;-73
2022/07/01 03:30:15;;;;;;;14.37;9.70;;;;;;;;;;4899958;28;213728;-74
2022/07/01 03:32:42;;;;;;;17.50;10.33;;;;;;;;;;4949075;28;25225;-72
2022/07/01 03:37:55;;;;;;;14.50;10.43;;;;;;;;;;4991760;28;20245;-73
2022/07/01 03:40:22;;;;;;;12.27;9.67;;;;;;;;;;4995374;28;23229;-73
2022/07/01 03:42:50;;;;;;;14.73;10.07;;;;;;;;;;4940707;28;29412;-74
2022/07/01 03:45:16;;;;;;;12.03;10.50;;;;;;;;;;4913923;28;20341;-72
2022/07/01 03:47:46;;;;;;;12.47;10.23;;;;;;;;;;4994653;28;20234;-70
2022/07/01 03:50:13;;;;;;;14.27;10.43;;;;;;;;;;4992689;28;23560;-71
2022/07/01 03:52:41;;;;;;;15.07;10.40;;;;;;;;;;4990113;28;20235;-70
2022/07/01 03:55:09;;;;;;;11.43;10.00;;;;;;;;;;4981489;28;20242;-70
2022/07/01 03:57:35;;;;;;;13.07;10.20;;;;;;;;;;5001127;28;20235;-69
2022/07/01 04:00:02;;;;;;;16.17;11.23;;;;;;;;;;4998099;28;20306;-71
2022/07/01 04:02:30;;;;;;;26.63;12.53;;;;;;;;;;4998232;28;31745;-71
2022/07/01 04:04:57;;;;;;;31.47;11.77;;;;;;;;;;4998725;28;20231;-74
2022/07/01 04:07:23;;;;;;;21.70;11.40;;;;;;;;;;5000813;28;20231;-71
2022/07/01 04:09:50;;;;;;;24.93;11.27;;;;;;;;;;4998176;28;20227;-69
2022/07/01 04:12:18;;;;;;;15.67;10.20;;;;;;;;;;5001100;28;20223;-70
2022/07/01 04:14:45;;;;;;;16.20;11.07;;;;;;;;;;4978234;28;20246;-70
2022/07/01 04:17:11;;;;;;;12.53;10.37;;;;;;;;;;4981386;28;20700;-72
2022/07/01 04:19:38;;;;;;;14.10;10.23;;;;;;;;;;4952821;28;219016;-71
2022/07/01 04:24:50;;;;;;;17.77;10.90;;;;;;;;;;4991917;28;20227;-70
2022/07/01 04:27:17;;;;;;;20.37;11.00;;;;;;;;;;4998908;28;20235;-70
2022/07/01 04:29:43;;;;;;;14.37;11.27;;;;;;;;;;4996984;28;20230;-71
2022/07/01 04:32:10;;;;;;;16.40;10.90;;;;;;;;;;4979149;28;20338;-72
2022/07/01 04:34:37;;;;;;;17.17;11.17;;;;;;;;;;4991419;28;213390;-70
2022/07/01 04:37:04;;;;;;;14.30;9.93;;;;;;;;;;4997131;28;20226;-69
2022/07/01 04:39:31;;;;;;;16.47;9.60;;;;;;;;;;4998888;28;20661;-70
2022/07/01 04:42:00;;;;;;;12.83;9.20;;;;;;;;;;4966555;28;20238;-70
2022/07/01 04:44:31;;;;;;;15.17;9.97;;;;;;;;;;4994862;28;20231;-70
2022/07/01 04:46:57;;;;;;;12.93;9.10;;;;;;;;;;4990991;28;20686;-71
2022/07/01 04:49:27;;;;;;;12.33;9.77;;;;;;;;;;4982253;28;20288;-71
2022/07/01 04:51:54;;;;;;;12.17;9.30;;;;;;;;;;4995964;28;20227;-70
2022/07/01 04:54:20;;;;;;;11.87;8.53;;;;;;;;;;4989457;28;20223;-68
2022/07/01 04:56:47;;;;;;;11.90;8.80;;;;;;;;;;4982449;28;20254;-71
2022/07/01 04:59:14;;;;;;;12.63;8.03;;;;;;;;;;4983124;28;20251;-72
2022/07/01 05:01:41;;;;;;;11.73;8.50;;;;;;;;;;4981675;28;22677;-70
2022/07/01 05:04:07;;;;;;;11.10;7.80;;;;;;;;;;4914827;28;21288;-73
2022/07/01 05:06:35;;;;;;;9.50;7.37;;;;;;;;;;4980873;28;38839;-70
2022/07/01 05:09:02;;;;;;;9.27;7.70;;;;;;;;;;4946124;28;20235;-72
2022/07/01 05:11:29;;;;;;;12.83;7.87;;;;;;;;;;4997014;28;20249;-71
2022/07/01 05:13:55;;;;;;;9.43;7.40;;;;;;;;;;4991532;28;219284;-72
2022/07/01 05:16:22;;;;;;;8.40;6.53;;;;;;;;;;4982833;28;20317;-71
2022/07/01 05:24:20;;;;;;;9.60;6.60;;;;;;;;;;4975483;28;219235;-72
2022/07/01 05:26:46;;;;;;;8.67;6.50;;;;;;;;;;4993137;28;20258;-71
2022/07/01 05:29:13;;;;;;;12.70;6.97;;;;;;;;;;4974540;28;218948;-70
2022/07/01 05:34:50;;;;;;;11.07;6.90;;;;;;;;;;4994258;28;20313;-67
2022/07/01 05:37:19;;;;;;;10.13;6.43;;;;;;;;;;4998694;28;20223;-71
2022/07/01 05:39:47;;;;;;;9.53;6.63;;;;;;;;;;4956842;28;215583;-68
2022/07/01 05:42:16;;;;;;;13.13;6.43;;;;;;;;;;4994590;28;20298;-69
2022/07/01 05:44:43;;;;;;;11.27;7.20;;;;;;;;;;4983005;28;20341;-72
2022/07/01 05:47:28;;;;;;;11.37;6.57;;;;;;;;;;4981075;28;236719;-70
2022/07/01 05:49:55;;;;;;;10.83;6.87;;;;;;;;;;4976333;28;20237;-71
2022/07/01 05:52:22;;;;;;;11.13;7.40;;;;;;;;;;4964517;28;20737;-72
2022/07/01 05:54:49;;;;;;;9.90;6.80;;;;;;;;;;4975000;28;20282;-72
2022/07/01 05:57:15;;;;;;;9.83;7.10;;;;;;;;;;4977586;28;22076;-72
2022/07/01 05:59:42;;;;;;;7.70;6.00;;;;;;;;;;4956003;28;240790;-72
2022/07/01 06:02:09;;;;;;;11.67;6.63;;;;;;;;;;4949223;28;216853;-72
2022/07/01 06:04:35;;;;;;;10.37;6.70;;;;;;;;;;4962585;28;23570;-71
2022/07/01 06:07:03;;;;;;;9.03;6.80;;;;;;;;;;4979686;28;20233;-72
2022/07/01 06:09:29;;;;;;;9.73;6.33;;;;;;;;;;4952817;28;20248;-71
2022/07/01 06:11:56;;;;;;;8.23;6.33;;;;;;;;;;4984029;28;30846;-71
2022/07/01 06:14:23;;;;;;;8.97;6.30;;;;;;;;;;4951410;28;40219;-70
2022/07/01 06:16:50;;;;;;;8.47;6.47;;;;;;;;;;4975782;28;66475;-68
2022/07/01 06:19:17;;;;;;;10.70;5.80;;;;;;;;;;4976241;28;63595;-69
2022/07/01 06:21:44;;;;;;;7.60;5.93;;;;;;;;;;4944556;28;60600;-69
2022/07/01 06:24:28;;;;;;;9.67;6.30;;;;;;;;;;4931987;28;85800;-69
2022/07/01 06:26:55;;;;;;;9.50;6.40;;;;;;;;;;4965377;28;20246;-71
2022/07/01 06:29:21;;;;;;;10.63;6.63;;;;;;;;;;4910804;28;189037;-67
2022/07/01 06:31:48;;;;;;;10.00;6.20;;;;;;;;;;4819443;28;5094848;-71
2022/07/01 06:34:15;;;;;;;14.13;6.50;;;;;;;;;;4993077;28;20310;-73
2022/07/01 06:36:42;;;;;;;14.50;6.23;;;;;;;;;;4978029;28;20330;-71
2022/07/01 06:39:09;;;;;;;15.63;6.60;;;;;;;;;;4942061;28;20231;-72
2022/07/01 06:41:36;;;;;;;11.03;6.13;;;;;;;;;;4789906;28;5094228;-72
2022/07/01 06:44:04;;;;;;;8.37;6.30;;;;;;;;;;4796530;28;5095626;-71
2022/07/01 06:46:31;;;;;;;10.03;6.40;;;;;;;;;;4995887;28;20227;-72
2022/07/01 06:48:58;;;;;;;8.77;5.70;;;;;;;;;;4965196;28;20226;-68
2022/07/01 06:51:26;;;;;;;14.77;6.37;;;;;;;;;;4953634;28;20250;-73
2022/07/01 06:53:54;;;;;;;12.03;7.43;;;;;;;;;;4992221;28;20242;-69
2022/07/01 06:56:21;;;;;;;10.03;7.20;;;;;;;;;;4969940;28;20246;-67
2022/07/01 06:58:48;;;;;;;10.47;6.50;;;;;;;;;;4798317;28;5091452;-74
2022/07/01 07:01:15;;;;;;;12.43;6.50;;;;;;;;;;4986840;28;20239;-74
2022/07/01 07:03:41;;;;;;;10.90;6.47;;;;;;;;;;4797586;28;5090807;-71
2022/07/01 07:06:08;;;;;;;12.63;6.07;;;;;;;;;;4995581;28;20594;-71
2022/07/01 07:08:52;;;;;;;14.17;6.60;;;;;;;;;;4973304;28;20258;-68
2022/07/01 07:11:19;;;;;;;12.03;6.20;;;;;;;;;;4944110;28;20235;-68
2022/07/01 07:13:46;;;;;;;9.60;5.27;;;;;;;;;;4970286;28;20232;-68
2022/07/01 07:16:13;;;;;;;9.00;5.63;;;;;;;;;;4980132;28;20227;-68
2022/07/01 07:18:39;;;;;;;10.77;5.53;;;;;;;;;;4958475;28;20211;-71
2022/07/01 07:21:06;;;;;;;9.53;5.20;;;;;;;;;;4944871;28;20238;-71
2022/07/01 07:23:33;;;;;;;6.03;4.33;;;;;;;;;;4988957;28;20239;-69
2022/07/01 07:26:00;;;;;;;6.60;4.10;;;;;;;;;;4978408;28;20284;-68
2022/07/01 07:28:29;;;;;;;7.57;4.43;;;;;;;;;;4993353;28;23254;-69
2022/07/01 07:30:56;;;;;;;6.60;4.40;;;;;;;;;;4995367;28;20709;-70
2022/07/01 07:33:23;;;;;;;7.40;4.30;;;;;;;;;;4820649;28;5085909;-70
2022/07/01 07:35:50;;;;;;;8.30;4.83;;;;;;;;;;4995129;28;20227;-69
2022/07/01 07:38:36;;;;;;;5.13;3.63;;;;;;;;;;4991375;28;20255;-71
2022/07/01 07:41:04;;;;;;;7.57;3.53;;;;;;;;;;4994861;28;20312;-70
2022/07/01 07:43:30;;;;;;;5.60;3.23;;;;;;;;;;4992419;28;27269;-68
2022/07/01 07:45:57;;;;;;;7.33;3.37;;;;;;;;;;4969897;28;27380;-75
2022/07/01 07:48:25;;;;;;;5.83;3.10;;;;;;;;;;4926078;28;20777;-72
2022/07/01 07:50:51;;;;;;;6.30;3.73;;;;;;;;;;4973517;28;21009;-73
2022/07/01 07:53:18;;;;;;;4.70;3.50;;;;;;;;;;4774697;28;5094548;-75
2022/07/01 07:55:45;;;;;;;7.93;4.10;;;;;;;;;;4963456;28;20235;-70
2022/07/01 07:58:12;;;;;;;7.40;4.30;;;;;;;;;;4794197;28;5088457;-71
2022/07/01 08:00:39;;;;;;;8.20;3.57;;;;;;;;;;4688970;28;5087177;-73
2022/07/01 08:03:06;;;;;;;6.47;3.47;;;;;;;;;;4938133;28;22075;-76
2022/07/01 08:05:33;;;;;;;7.67;3.80;;;;;;;;;;4996582;28;23640;-76
2022/07/01 08:08:00;;;;;;;6.80;3.87;;;;;;;;;;4571948;28;5092528;-77
2022/07/01 08:10:26;;;;;;;7.17;3.37;;;;;;;;;;4895289;28;20295;-75
2022/07/01 08:12:53;;;;;;;5.67;3.70;;;;;;;;;;4775493;28;5092109;-77
2022/07/01 08:15:20;;;;;;;7.90;4.10;;;;;;;;;;4987853;28;20263;-78
2022/07/01 08:17:48;;;;;;;10.93;4.70;;;;;;;;;;4938367;28;20234;-72
2022/07/01 08:20:16;;;;;;;12.13;4.87;;;;;;;;;;4911203;28;22850;-71
2022/07/01 08:22:48;;;;;;;8.93;4.80;;;;;;;;;;4576668;28;5094207;-75
2022/07/01 08:25:15;;;;;;;6.67;4.57;;;;;;;;;;4806716;28;5084170;-72
2022/07/01 08:27:42;;;;;;;8.70;4.40;;;;;;;;;;4603287;28;5086576;-74
2022/07/01 08:30:09;;;;;;;10.93;4.73;;;;;;;;;;4798836;28;5091959;-72
2022/07/01 08:32:36;;;;;;;7.67;4.23;;;;;;;;;;4552098;28;5095300;-71
2022/07/01 08:35:02;;;;;;;8.20;4.80;;;;;;;;;;4890757;28;20715;-74
2022/07/01 08:37:31;;;;;;;8.60;5.03;;;;;;;;;;4794885;28;5090704;-70
2022/07/01 08:39:59;;;;;;;10.37;4.73;;;;;;;;;;4954708;28;241950;-71
2022/07/01 08:42:25;;;;;;;8.50;4.90;;;;;;;;;;4862053;28;637909;-71
2022/07/01 08:44:52;;;;;;;9.67;4.77;;;;;;;;;;4971167;28;20325;-71
2022/07/01 08:47:19;;;;;;;8.13;4.53;;;;;;;;;;4973311;28;221792;-72
2022/07/01 08:49:46;;;;;;;6.13;4.37;;;;;;;;;;4979644;28;20236;-72
2022/07/01 08:52:13;;;;;;;9.63;4.33;;;;;;;;;;4997286;28;22487;-71
2022/07/01 08:54:41;;;;;;;7.30;4.20;;;;;;;;;;4937083;28;212357;-73
2022/07/01 08:57:07;;;;;;;7.33;4.33;;;;;;;;;;4939230;28;229489;-70
2022/07/01 08:59:34;;;;;;;9.03;4.80;;;;;;;;;;4979037;28;20313;-70
2022/07/01 09:02:03;;;;;;;7.20;4.23;;;;;;;;;;4998628;28;20702;-71
2022/07/01 09:04:30;;;;;;;7.87;4.23;;;;;;;;;;4982885;28;20223;-71
2022/07/01 09:07:00;;;;;;;6.60;4.63;;;;;;;;;;4964619;28;30100;-71
2022/07/01 09:09:26;;;;;;;7.30;4.63;;;;;;;;;;4921885;28;23288;-72
2022/07/01 09:11:54;;;;;;;6.03;4.90;;;;;;;;;;4974246;28;23115;-71
2022/07/01 09:14:40;;;;;;;8.00;4.67;;;;;;;;;;4971757;28;20676;-67
2022/07/01 09:17:07;;;;;;;7.57;5.07;;;;;;;;;;4994745;28;23689;-71
2022/07/01 09:19:35;;;;;;;8.93;4.30;;;;;;;;;;4969441;28;22979;-72
2022/07/01 09:22:06;;;;;;;8.90;5.40;;;;;;;;;;4763136;28;4756285;-71
2022/07/01 09:24:34;;;;;;;9.37;4.90;;;;;;;;;;4995375;28;24880;-71
2022/07/01 09:27:13;;;;;;;13.33;5.40;;;;;;;;;;4997518;28;20235;-70
2022/07/01 09:29:41;;;;;;;11.27;5.13;;;;;;;;;;4993360;28;20307;-71
2022/07/01 09:32:09;;;;;;;11.77;5.47;;;;;;;;;;4780629;28;5091113;-71
2022/07/01 09:34:43;;;;;;;6.53;5.13;;;;;;;;;;4989914;28;24700;-70
2022/07/01 09:37:11;;;;;;;8.13;5.53;;;;;;;;;;4843681;28;4245927;-70
2022/07/01 09:39:44;;;;;;;7.77;5.40;;;;;;;;;;4850422;28;4254234;-70
2022/07/01 09:42:11;;;;;;;9.37;6.40;;;;;;;;;;4809588;28;4244667;-71
2022/07/01 09:44:57;;;;;;;9.17;6.70;;;;;;;;;;4953870;28;20228;-68
2022/07/01 09:47:30;;;;;;;8.00;6.33;;;;;;;;;;4992007;28;20216;-72
2022/07/01 09:49:57;;;;;;;10.07;7.03;;;;;;;;;;4959153;28;20310;-70
2022/07/01 09:52:24;;;;;;;7.87;6.93;;;;;;;;;;4975077;28;20227;-69
2022/07/01 09:54:50;;;;;;;13.50;6.53;;;;;;;;;;4997062;28;20773;-69
2022/07/01 09:57:17;;;;;;;9.23;6.37;;;;;;;;;;4989678;28;20240;-68
2022/07/01 09:59:44;;;;;;;9.33;7.83;;;;;;;;;;4996096;28;20855;-70
2022/07/01 10:02:11;;;;;;;10.63;8.30;;;;;;;;;;4996079;28;20235;-68
2022/07/01 10:04:38;;;;;;;13.03;8.33;;;;;;;;;;4996346;28;20366;-70
2022/07/01 10:07:15;;;;;;;14.20;8.43;;;;;;;;;;4991945;28;20265;-69
2022/07/01 10:09:42;;;;;;;11.40;7.90;;;;;;;;;;4975697;28;20244;-68
2022/07/01 10:12:18;;;;;;;14.00;7.75;;;;;;;;;;4872482;28;3789923;-71
2022/07/01 10:14:44;;;;;;;13.23;7.17;;;;;;;;;;4983318;28;20226;-67
2022/07/01 10:17:25;;;;;;;14.33;8.30;;;;;;;;;;4973933;28;20933;-69
2022/07/01 10:19:55;;;;;;;7.37;6.53;;;;;;;;;;4994791;28;20231;-69
2022/07/01 10:22:26;;;;;;;7.87;7.10;;;;;;;;;;4959649;28;20236;-72
2022/07/01 10:24:53;;;;;;;8.27;7.17;;;;;;;;;;4959029;28;20266;-70
2022/07/01 10:27:20;;;;;;;17.07;8.00;;;;;;;;;;4849390;28;3381280;-71
2022/07/01 10:29:47;;;;;;;12.90;7.83;;;;;;;;;;4941504;28;20224;-69
2022/07/01 10:32:23;;;;;;;11.40;7.97;;;;;;;;;;4960456;28;20232;-68
2022/07/01 10:35:09;;;;;;;12.17;7.97;;;;;;;;;;4889098;28;3022273;-68
2022/07/01 10:37:41;;;;;;;12.83;8.17;;;;;;;;;;4984134;28;20223;-67
2022/07/01 10:40:08;;;;;;;12.70;8.17;;;;;;;;;;4970598;28;20569;-68
2022/07/01 10:42:55;;;;;;;9.87;7.73;;;;;;;;;;4996337;28;20211;-68
2022/07/01 10:45:42;;;;;;;11.50;8.70;;;;;;;;;;4974104;28;211960;-70
2022/07/01 10:48:23;;;;;;;10.23;8.60;;;;;;;;;;4990863;28;20219;-69
2022/07/01 10:50:50;;;;;;;10.30;8.73;;;;;;;;;;4987085;28;214594;-70
2022/07/01 10:53:17;;;;;;;12.60;8.27;;;;;;;;;;4989259;28;20262;-69
2022/07/01 10:55:44;;;;;;;9.83;8.13;;;;;;;;;;4979732;28;20230;-69
2022/07/01 10:58:11;;;;;;;11.17;8.77;;;;;;;;;;4993035;28;20238;-69
2022/07/01 11:00:41;;;;;;;14.30;9.07;;;;;;;;;;4976323;28;21057;-70
2022/07/01 11:03:09;;;;;;;11.40;9.17;;;;;;;;;;4994757;28;20236;-69
2022/07/01 11:05:37;;;;;;;13.00;9.13;;;;;;;;;;4996264;28;20227;-68
2022/07/01 11:08:04;;;;;;;12.13;9.03;;;;;;;;;;4974871;28;31846;-68
2022/07/01 11:10:31;;;;;;;12.70;9.30;;;;;;;;;;4990014;28;20306;-68
2022/07/01 11:12:59;;;;;;;11.43;10.33;;;;;;;;;;4964766;28;219608;-70
2022/07/01 11:15:30;;;;;;;12.13;10.83;;;;;;;;;;4977917;28;20246;-69
2022/07/01 11:17:57;;;;;;;14.10;11.57;;;;;;;;;;4984885;28;20257;-68
2022/07/01 11:20:25;;;;;;;12.50;10.83;;;;;;;;;;4966361;28;21409;-69
2022/07/01 11:22:51;;;;;;;14.13;10.93;;;;;;;;;;4974973;28;20219;-71
2022/07/01 11:25:19;;;;;;;12.63;11.43;;;;;;;;;;4999188;28;20341;-67
2022/07/01 11:27:46;;;;;;;12.30;11.00;;;;;;;;;;4991657;28;20259;-68
2022/07/01 11:30:13;;;;;;;14.63;11.90;;;;;;;;;;4976520;28;20281;-67
2022/07/01 11:32:52;;;;;;;10.47;8.70;;;;;;;;;;4968944;28;20238;-68
2022/07/01 11:41:22;;;;;;;13.13;8.20;;;;;;;;;;4957027;28;20586;-66
2022/07/01 11:44:09;;;;;;;8.90;7.90;;;;;;;;;;5001197;28;20222;-67
2022/07/01 11:46:53;;;;;;;7.83;6.93;;;;;;;;;;5001383;28;20235;-68
2022/07/01 11:49:23;;;;;;;7.93;6.70;;;;;;;;;;4983621;28;20234;-67
2022/07/01 11:52:00;;;;;;;8.90;6.63;;;;;;;;;;5001161;28;20675;-68
2022/07/01 11:54:26;;;;;;;9.10;6.43;;;;;;;;;;4986586;28;20251;-68
2022/07/01 11:56:53;;;;;;;8.37;6.90;;;;;;;;;;4990292;28;20761;-69
2022/07/01 11:59:20;;;;;;;8.33;6.47;;;;;;;;;;4995156;28;20227;-69
2022/07/01 12:01:53;;;;;;;6.83;6.20;;;;;;;;;;4984839;28;20262;-68
2022/07/01 12:04:21;;;;;;;6.67;6.07;;;;;;;;;;4980310;28;20234;-68
2022/07/01 12:06:48;;;;;;;7.17;5.87;;;;;;;;;;5000565;28;20234;-68
2022/07/01 12:09:16;;;;;;;7.93;6.17;;;;;;;;;;4989466;28;20276;-69
2022/07/01 12:11:46;;;;;;;7.00;6.10;;;;;;;;;;4998876;28;20234;-69
2022/07/01 12:14:39;;;;;;;9.50;6.37;;;;;;;;;;4995897;28;20704;-67
2022/07/01 12:17:25;;;;;;;8.40;6.07;;;;;;;;;;4981684;28;20263;-69
2022/07/01 12:19:53;;;;;;;13.67;6.87;;;;;;;;;;4980629;28;20238;-70
2022/07/01 12:22:20;;;;;;;9.33;7.37;;;;;;;;;;4981094;28;20626;-67
2022/07/01 12:24:47;;;;;;;12.87;7.70;;;;;;;;;;4982836;28;20231;-66
2022/07/01 12:27:14;;;;;;;11.87;7.83;;;;;;;;;;5005448;28;21059;-66
2022/07/01 12:29:40;;;;;;;11.80;8.33;;;;;;;;;;5007257;28;20231;-66
2022/07/01 12:32:28;;;;;;;11.27;8.57;;;;;;;;;;4981848;28;20703;-67
2022/07/01 12:34:58;;;;;;;10.13;7.93;;;;;;;;;;4984144;28;20227;-70
2022/07/01 12:37:33;;;;;;;10.50;8.73;;;;;;;;;;5003308;28;20226;-69
2022/07/01 12:40:00;;;;;;;11.47;7.50;;;;;;;;;;5004409;28;20312;-70
2022/07/01 12:42:28;;;;;;;8.27;7.33;;;;;;;;;;5006296;28;20227;-69
2022/07/01 12:44:55;;;;;;;9.97;7.20;;;;;;;;;;5004724;28;20230;-71
2022/07/01 12:47:27;;;;;;;9.47;6.57;;;;;;;;;;5004580;28;20235;-71
2022/07/01 12:50:12;;;;;;;9.30;6.93;;;;;;;;;;5004634;28;20235;-71
2022/07/01 12:52:39;;;;;;;14.20;7.33;;;;;;;;;;5004250;28;20709;-69
2022/07/01 12:55:15;;;;;;;8.63;7.07;;;;;;;;;;4990046;28;20730;-70
2022/07/01 12:57:42;;;;;;;8.43;6.57;;;;;;;;;;5005380;28;20702;-70
2022/07/01 13:00:09;;;;;;;9.07;6.07;;;;;;;;;;4987144;28;222238;-67
2022/07/01 13:02:36;;;;;;;7.97;5.93;;;;;;;;;;4987776;28;20231;-71
2022/07/01 13:05:03;;;;;;;9.33;6.20;;;;;;;;;;5005345;28;21909;-69
2022/07/01 13:07:29;;;;;;;6.93;6.23;;;;;;;;;;4986480;28;20302;-72
2022/07/01 13:09:56;;;;;;;11.57;8.07;;;;;;;;;;5003252;28;20702;-71
2022/07/01 13:12:23;;;;;;;9.67;7.57;;;;;;;;;;4998490;28;20228;-70
2022/07/01 13:14:50;;;;;;;8.00;7.30;;;;;;;;;;4988409;28;20220;-71
2022/07/01 13:17:16;;;;;;;12.00;7.50;;;;;;;;;;5001771;28;20231;-71
2022/07/01 13:19:43;;;;;;;15.77;7.53;;;;;;;;;;5004188;28;27602;-70
2022/07/01 13:22:10;;;;;;;10.40;7.60;;;;;;;;;;5003020;28;20254;-71
2022/07/01 13:24:39;;;;;;;8.63;7.70;;;;;;;;;;5005039;28;20262;-71
2022/07/01 13:27:06;;;;;;;10.33;7.43;;;;;;;;;;5002905;28;20235;-69
2022/07/01 13:29:32;;;;;;;10.40;7.40;;;;;;;;;;5003229;28;20793;-70
2022/07/01 13:31:59;;;;;;;11.03;7.87;;;;;;;;;;4981217;28;20220;-69
2022/07/01 13:34:26;;;;;;;8.70;6.97;;;;;;;;;;4996887;28;32079;-71
2022/07/01 13:36:56;;;;;;;7.57;6.87;;;;;;;;;;4983797;28;34393;-70
2022/07/01 13:39:40;;;;;;;7.77;6.97;;;;;;;;;;4979718;28;20306;-69
2022/07/01 13:42:08;;;;;;;8.87;7.37;;;;;;;;;;4993886;28;20792;-71
2022/07/01 13:44:35;;;;;;;10.40;7.50;;;;;;;;;;4972150;28;20337;-70
2022/07/01 13:47:01;;;;;;;8.20;7.40;;;;;;;;;;4994523;28;20235;-70
2022/07/01 13:49:29;;;;;;;10.70;7.50;;;;;;;;;;4995769;28;20235;-68
2022/07/01 13:51:55;;;;;;;9.73;8.40;;;;;;;;;;4995306;28;20242;-69
2022/07/01 13:54:22;;;;;;;9.07;7.90;;;;;;;;;;5000367;28;20219;-67
2022/07/01 13:56:49;;;;;;;9.07;7.97;;;;;;;;;;5004591;28;20586;-68
2022/07/01 13:59:15;;;;;;;8.67;7.67;;;;;;;;;;5002643;28;20698;-68
2022/07/01 14:01:43;;;;;;;8.90;7.00;;;;;;;;;;4978186;28;217765;-70
2022/07/01 14:04:10;;;;;;;10.63;7.43;;;;;;;;;;5000592;28;20227;-67
2022/07/01 14:06:36;;;;;;;8.07;6.70;;;;;;;;;;5004187;28;20305;-67
2022/07/01 14:09:03;;;;;;;9.67;7.20;;;;;;;;;;5002227;28;20230;-67
2022/07/01 14:11:30;;;;;;;9.43;6.67;;;;;;;;;;5004159;28;20230;-67
2022/07/01 14:13:56;;;;;;;8.53;6.40;;;;;;;;;;5001921;28;20235;-69
2022/07/01 14:16:23;;;;;;;10.37;5.87;;;;;;;;;;4941709;28;1301685;-71
2022/07/01 14:18:50;;;;;;;8.40;6.70;;;;;;;;;;5003256;28;20223;-71
2022/07/01 14:21:18;;;;;;;7.53;4.70;;;;;;;;;;5002587;28;20235;-72
2022/07/01 14:24:03;;;;;;;7.97;5.10;;;;;;;;;;4992451;28;20266;-71
2022/07/01 14:26:30;;;;;;;6.57;4.83;;;;;;;;;;4993004;28;20992;-71
2022/07/01 14:28:56;;;;;;;6.60;4.63;;;;;;;;;;4993360;28;20229;-71
2022/07/01 14:31:23;;;;;;;7.47;4.67;;;;;;;;;;4994660;28;20240;-70
2022/07/01 14:33:49;;;;;;;8.03;4.50;;;;;;;;;;4995869;28;20349;-70
2022/07/01 14:36:17;;;;;;;4.57;4.03;;;;;;;;;;4997161;28;20603;-72
2022/07/01 14:38:44;;;;;;;9.40;3.87;;;;;;;;;;4959536;28;22001;-71
2022/07/01 14:41:11;;;;;;;9.43;3.80;;;;;;;;;;4996871;28;20219;-71
2022/07/01 14:43:38;;;;;;;6.70;3.53;;;;;;;;;;4976320;28;23904;-72
2022/07/01 14:46:08;;;;;;;6.90;3.70;;;;;;;;;;4994785;28;20235;-72
2022/07/01 14:48:38;;;;;;;5.47;3.07;;;;;;;;;;4974317;28;217717;-72
2022/07/01 14:51:05;;;;;;;7.20;4.13;;;;;;;;;;4993910;28;26395;-70
2022/07/01 14:53:32;;;;;;;6.33;3.40;;;;;;;;;;5004279;28;22248;-70
2022/07/01 14:55:59;;;;;;;5.83;3.60;;;;;;;;;;4981004;28;20586;-70
2022/07/01 14:58:26;;;;;;;7.37;3.50;;;;;;;;;;5004273;28;20239;-70